Time;durP1;ratioP1;P1;durP2;ratioP2;P2;SDS_P1;SDS_P2;PMS_P1;PMS_P2;Temp;Humidity;BMP_temperature;BMP_pressure;BME280_temperature;BME280_humidity;BME280_pressure;Samples;Min_cycle;Max_cycle;Signal;HPM_P1;HPM_P2
2021/04/26 00:01:54;;;;;;;;;;;;;;;26.14;29.65;100913.63;5098981;28;998;-36
2021/04/26 00:04:19;;;;;;;;;;;;;;;26.19;29.72;100908.56;5099519;28;759;-35
2021/04/26 00:06:45;;;;;;;;;;;;;;;26.16;29.55;100903.50;5099302;28;803;-35
2021/04/26 00:09:10;;;;;;;;;;;;;;;26.15;29.66;100904.53;5099165;28;1969;-35
2021/04/26 00:11:35;;;;;;;;;;;;;;;26.08;30.06;100895.44;5102566;28;1122;-35
2021/04/26 00:14:01;;;;;;;;;;;;;;;26.17;29.98;100897.94;5119492;28;826;-35
2021/04/26 00:16:26;;;;;;;;;;;;;;;26.11;29.80;100903.19;5114883;28;1249;-35
2021/04/26 00:18:51;;;;;;;;;;;;;;;26.07;30.19;100899.16;5099270;28;857;-35
2021/04/26 00:21:17;;;;;;;;;;;;;;;26.02;30.15;100899.66;5098857;28;843;-35
2021/04/26 00:23:42;;;;;;;;;;;;;;;26.07;30.08;100899.16;5099134;28;739;-37
2021/04/26 00:26:07;;;;;;;;;;;;;;;26.09;30.20;100897.13;5099157;28;759;-35
2021/04/26 00:28:33;;;;;;;;;;;;;;;26.10;30.22;100906.88;5098840;28;1902;-35
2021/04/26 00:30:58;;;;;;;;;;;;;;;26.09;30.35;100903.34;5098924;28;732;-35
2021/04/26 00:33:23;;;;;;;;;;;;;;;26.07;30.37;100908.09;5098317;28;1012;-37
2021/04/26 00:35:49;;;;;;;;;;;;;;;26.04;30.31;100908.44;5098698;28;838;-35
2021/04/26 00:38:14;;;;;;;;;;;;;;;26.06;30.37;100906.38;5098818;28;771;-36
2021/04/26 00:40:39;;;;;;;;;;;;;;;26.01;30.56;100906.06;5098004;28;1241;-35
2021/04/26 00:43:04;;;;;;;;;;;;;;;25.93;30.47;100912.31;5098545;28;791;-36
2021/04/26 00:45:30;;;;;;;;;;;;;;;25.97;30.35;100916.38;5098443;28;1334;-35
2021/04/26 00:47:55;;;;;;;;;;;;;;;26.06;30.25;100914.47;5097147;28;1906;-36
2021/04/26 00:50:22;;;;;;;;;;;;;;;25.95;30.64;100918.38;5098504;28;830;-35
2021/04/26 00:52:47;;;;;;;;;;;;;;;25.99;30.44;100914.31;5098573;28;752;-36
2021/04/26 00:55:13;;;;;;;;;;;;;;;25.91;30.28;100917.88;5098159;28;854;-34
2021/04/26 00:57:38;;;;;;;;;;;;;;;25.90;30.61;100916.22;5097178;28;803;-35
2021/04/26 01:00:07;;;;;;;;;;;;;;;25.90;30.48;100921.59;5098392;28;737;-36
2021/04/26 01:02:32;;;;;;;;;;;;;;;25.86;30.93;100924.81;5097730;28;1437;-35
2021/04/26 01:04:57;;;;;;;;;;;;;;;25.84;30.46;100924.94;5098316;28;831;-36
2021/04/26 01:07:23;;;;;;;;;;;;;;;25.84;30.55;100919.56;5097516;28;1901;-35
2021/04/26 01:09:48;;;;;;;;;;;;;;;25.84;30.51;100918.75;5097958;28;897;-35
2021/04/26 01:12:16;;;;;;;;;;;;;;;25.86;30.51;100919.41;5106499;28;1111;-36
2021/04/26 01:14:42;;;;;;;;;;;;;;;25.88;30.42;100906.59;5118522;28;823;-36
2021/04/26 01:17:09;;;;;;;;;;;;;;;25.84;30.38;100905.25;5101441;28;946;-35
2021/04/26 01:19:52;;;;;;;;;;;;;;;25.87;30.54;100903.06;5076628;28;732;-36
2021/04/26 01:22:27;;;;;;;;;;;;;;;25.82;30.57;100904.59;5076418;28;756;-35
2021/04/26 01:24:54;;;;;;;;;;;;;;;25.84;30.28;100902.56;5077510;28;821;-37
2021/04/26 01:27:42;;;;;;;;;;;;;;;25.83;30.41;100900.88;5076238;28;752;-35
2021/04/26 01:30:08;;;;;;;;;;;;;;;25.86;30.39;100903.25;5076356;28;972;-35
2021/04/26 01:32:41;;;;;;;;;;;;;;;25.79;30.56;100908.47;5088656;28;1002;-36
2021/04/26 01:35:06;;;;;;;;;;;;;;;25.89;30.61;100908.28;5097246;28;823;-35
2021/04/26 01:37:32;;;;;;;;;;;;;;;25.85;30.43;100906.94;5097758;28;870;-35
2021/04/26 01:39:57;;;;;;;;;;;;;;;25.88;30.63;100911.97;5097709;28;843;-35
2021/04/26 01:42:23;;;;;;;;;;;;;;;25.84;30.77;100916.03;5096417;28;819;-35
2021/04/26 01:44:48;;;;;;;;;;;;;;;25.91;30.66;100917.88;5096000;28;1216;-35
2021/04/26 01:47:13;;;;;;;;;;;;;;;25.92;30.74;100911.47;5095875;28;1621;-36
2021/04/26 01:49:39;;;;;;;;;;;;;;;25.97;30.52;100912.81;5095784;28;1999;-35
2021/04/26 01:52:06;;;;;;;;;;;;;;;25.94;30.67;100916.72;5097674;28;759;-36
2021/04/26 01:54:31;;;;;;;;;;;;;;;25.91;30.44;100912.47;5097204;28;941;-36
2021/04/26 01:56:56;;;;;;;;;;;;;;;25.87;30.96;100911.16;5095973;28;779;-36
2021/04/26 01:59:22;;;;;;;;;;;;;;;25.94;30.66;100907.78;5095996;28;736;-36
2021/04/26 02:01:50;;;;;;;;;;;;;;;25.85;30.76;100904.25;5096814;28;1045;-35
2021/04/26 02:04:15;;;;;;;;;;;;;;;25.84;30.63;100900.69;5097313;28;778;-36
2021/04/26 02:06:40;;;;;;;;;;;;;;;25.90;30.41;100905.44;5097237;28;874;-35
2021/04/26 02:09:06;;;;;;;;;;;;;;;25.88;30.41;100895.81;5097075;28;1905;-35
2021/04/26 02:11:31;;;;;;;;;;;;;;;25.82;30.57;100899.19;5099387;28;1146;-35
2021/04/26 02:13:56;;;;;;;;;;;;;;;25.87;30.46;100894.13;5117445;28;759;-36
2021/04/26 02:16:21;;;;;;;;;;;;;;;25.78;30.45;100902.25;5114713;28;949;-36
2021/04/26 02:18:47;;;;;;;;;;;;;;;25.84;30.49;100905.25;5095847;28;758;-36
2021/04/26 02:21:12;;;;;;;;;;;;;;;25.79;30.53;100905.78;5096951;28;802;-36
2021/04/26 02:23:38;;;;;;;;;;;;;;;25.77;30.42;100902.41;5097054;28;943;-36
2021/04/26 02:26:03;;;;;;;;;;;;;;;25.81;30.46;100901.03;5096686;28;818;-35
2021/04/26 02:28:28;;;;;;;;;;;;;;;25.80;30.40;100904.75;5096573;28;1901;-37
2021/04/26 02:30:54;;;;;;;;;;;;;;;25.81;30.59;100906.44;5096929;28;838;-35
2021/04/26 02:33:20;;;;;;;;;;;;;;;25.78;30.48;100901.38;5096036;28;954;-35
2021/04/26 02:35:50;;;;;;;;;;;;;;;25.77;30.40;100900.56;5096815;28;1378;-35
2021/04/26 02:38:16;;;;;;;;;;;;;;;25.66;30.43;100899.03;5095974;28;828;-36
2021/04/26 02:40:45;;;;;;;;;;;;;;;26.10;30.32;100902.34;5096652;28;747;-37
2021/04/26 02:43:10;;;;;;;;;;;;;;;27.34;28.78;100901.94;5096761;28;786;-37
2021/04/26 02:45:35;;;;;;;;;;;;;;;28.22;27.51;100903.34;5096219;28;1614;-37
2021/04/26 02:48:00;;;;;;;;;;;;;;;28.63;26.77;100903.91;5079443;28;1980;-36
2021/04/26 02:50:26;;;;;;;;;;;;;;;28.90;26.45;100905.03;5075337;28;771;-38
2021/04/26 02:52:52;;;;;;;;;;;;;;;29.30;25.71;100907.31;5076568;28;739;-36
2021/04/26 02:55:18;;;;;;;;;;;;;;;29.57;25.43;100904.84;5076188;28;894;-36
2021/04/26 02:57:43;;;;;;;;;;;;;;;29.89;25.30;100911.78;5076455;28;775;-36
2021/04/26 03:00:13;;;;;;;;;;;;;;;29.85;25.15;100900.50;5076376;28;764;-36
2021/04/26 03:02:38;;;;;;;;;;;;;;;30.07;25.23;100897.72;5087857;28;1073;-36
2021/04/26 03:05:05;;;;;;;;;;;;;;;30.30;24.76;100900.16;5094987;28;1453;-36
2021/04/26 03:07:31;;;;;;;;;;;;;;;30.23;24.64;100904.69;5095316;28;1980;-37
2021/04/26 03:09:56;;;;;;;;;;;;;;;30.17;25.02;100900.91;5094930;28;841;-36
2021/04/26 03:12:21;;;;;;;;;;;;;;;30.12;25.35;100902.53;5104294;28;1151;-36
2021/04/26 03:14:47;;;;;;;;;;;;;;;30.35;25.29;100896.84;5116749;28;877;-36
2021/04/26 03:17:12;;;;;;;;;;;;;;;30.34;24.38;100892.47;5106973;28;1000;-35
2021/04/26 03:19:39;;;;;;;;;;;;;;;30.07;24.11;100895.00;5095846;28;1523;-36
2021/04/26 03:22:04;;;;;;;;;;;;;;;30.31;23.43;100890.16;5096277;28;760;-37
2021/04/26 03:24:29;;;;;;;;;;;;;;;28.90;22.65;100894.19;5096401;28;751;-41
2021/04/26 03:26:54;;;;;;;;;;;;;;;27.35;20.86;100882.00;5096353;28;838;-40
2021/04/26 03:29:20;;;;;;;;;;;;;;;27.52;19.19;100885.41;5096087;28;1902;-40
2021/04/26 03:31:46;;;;;;;;;;;;;;;26.58;20.20;100884.50;5095126;28;1014;-40
2021/04/26 03:34:12;;;;;;;;;;;;;;;26.23;20.11;100892.84;5079815;28;799;-39
2021/04/26 03:36:37;;;;;;;;;;;;;;;25.36;20.58;100897.84;5078602;28;755;-38
2021/04/26 03:39:03;;;;;;;;;;;;;;;25.26;21.02;100889.91;5078559;28;758;-38
2021/04/26 03:41:28;;;;;;;;;;;;;;;25.26;20.84;100896.13;5079645;28;811;-39
2021/04/26 03:43:55;;;;;;;;;;;;;;;24.06;22.94;100896.00;5078103;28;1166;-38
2021/04/26 03:46:20;;;;;;;;;;;;;;;23.04;23.82;100885.59;5084047;28;1646;-36
2021/04/26 03:48:45;;;;;;;;;;;;;;;22.12;24.78;100890.66;5100167;28;1966;-36
2021/04/26 03:51:11;;;;;;;;;;;;;;;20.32;27.52;100889.75;5099617;28;933;-39
2021/04/26 03:53:36;;;;;;;;;;;;;;;20.19;28.33;100885.50;5099770;28;755;-37
2021/04/26 03:56:01;;;;;;;;;;;;;;;22.33;25.72;100894.97;5099364;28;815;-34
2021/04/26 03:58:26;;;;;;;;;;;;;;;24.84;23.24;100903.25;5099046;28;830;-37
2021/04/26 04:00:52;;;;;;;;;;;;;;;25.87;22.42;100905.78;5099475;28;807;-37
2021/04/26 04:03:17;;;;;;;;;;;;;;;26.38;21.98;100903.78;5099279;28;966;-36
2021/04/26 04:05:43;;;;;;;;;;;;;;;26.67;22.35;100896.94;5098980;28;804;-38
2021/04/26 04:08:09;;;;;;;;;;;;;;;27.04;22.00;100893.72;5098975;28;1897;-37
2021/04/26 04:10:34;;;;;;;;;;;;;;;27.11;22.14;100894.69;5099064;28;822;-37
2021/04/26 04:12:59;;;;;;;;;;;;;;;27.35;21.74;100898.22;5113734;28;1091;-37
2021/04/26 04:15:25;;;;;;;;;;;;;;;27.55;21.69;100897.72;5119687;28;782;-38
2021/04/26 04:17:50;;;;;;;;;;;;;;;27.66;22.01;100902.69;5103145;28;855;-37
2021/04/26 04:20:15;;;;;;;;;;;;;;;27.25;23.32;100904.72;5098782;28;814;-39
2021/04/26 04:22:41;;;;;;;;;;;;;;;26.59;24.62;100907.78;5113579;28;1150;-41
2021/04/26 04:25:06;;;;;;;;;;;;;;;26.24;25.24;100910.75;5113228;28;1082;-41
2021/04/26 04:27:31;;;;;;;;;;;;;;;25.94;25.98;100916.72;5099179;28;1897;-40
2021/04/26 04:29:57;;;;;;;;;;;;;;;25.84;26.10;100907.97;5098857;28;976;-39
2021/04/26 04:32:22;;;;;;;;;;;;;;;25.83;26.45;100903.56;5098606;28;950;-37
2021/04/26 04:34:47;;;;;;;;;;;;;;;25.70;26.63;100904.09;5098876;28;842;-39
2021/04/26 04:37:13;;;;;;;;;;;;;;;25.62;26.90;100904.91;5098930;28;735;-40
2021/04/26 04:39:38;;;;;;;;;;;;;;;25.51;26.81;100900.69;5098309;28;816;-39
2021/04/26 04:42:03;;;;;;;;;;;;;;;25.50;26.94;100905.25;5097748;28;897;-37
2021/04/26 04:44:29;;;;;;;;;;;;;;;25.79;26.86;100908.47;5098578;28;1105;-43
2021/04/26 04:46:54;;;;;;;;;;;;;;;25.47;27.10;100907.44;5096981;28;1609;-40
2021/04/26 04:49:19;;;;;;;;;;;;;;;25.32;27.61;100910.81;5098643;28;1917;-47
2021/04/26 04:51:45;;;;;;;;;;;;;;;25.33;27.63;100903.53;5098703;28;822;-42
2021/04/26 04:54:10;;;;;;;;;;;;;;;25.23;27.81;100909.94;5098395;28;791;-37
2021/04/26 04:56:35;;;;;;;;;;;;;;;25.18;28.04;100906.91;5098151;28;1045;-38
2021/04/26 04:59:01;;;;;;;;;;;;;;;25.90;27.18;100907.28;5098555;28;743;-39
2021/04/26 05:01:26;;;;;;;;;;;;;;;26.33;26.51;100909.72;5097876;28;1443;-38
2021/04/26 05:03:51;;;;;;;;;;;;;;;26.28;26.46;100909.38;5098738;28;860;-39
2021/04/26 05:06:17;;;;;;;;;;;;;;;25.71;27.66;100913.88;5098310;28;881;-38
2021/04/26 05:08:42;;;;;;;;;;;;;;;25.60;28.01;100912.31;5098029;28;1914;-38
2021/04/26 05:11:07;;;;;;;;;;;;;;;25.39;28.37;100909.09;5098295;28;789;-41
2021/04/26 05:13:33;;;;;;;;;;;;;;;26.04;27.76;100903.88;5117613;28;1202;-43
2021/04/26 05:16:02;;;;;;;;;;;;;;;26.36;27.18;100911.25;5118446;28;790;-41
2021/04/26 05:18:28;;;;;;;;;;;;;;;26.52;26.88;100921.97;5097952;28;1003;-48
2021/04/26 05:20:54;;;;;;;;;;;;;;;25.99;27.54;100919.72;5096062;28;1119;-42
2021/04/26 05:23:19;;;;;;;;;;;;;;;25.70;28.19;100915.72;5098184;28;1010;-43
2021/04/26 05:25:44;;;;;;;;;;;;;;;25.55;28.32;100908.28;5096537;28;767;-42
2021/04/26 05:28:09;;;;;;;;;;;;;;;26.03;27.87;100902.19;5097538;28;1905;-40
2021/04/26 05:30:35;;;;;;;;;;;;;;;26.29;27.24;100917.28;5097962;28;789;-42
2021/04/26 05:33:00;;;;;;;;;;;;;;;26.35;27.16;100917.63;5097628;28;1005;-40
2021/04/26 05:35:25;;;;;;;;;;;;;;;25.97;27.97;100920.91;5097457;28;798;-38
2021/04/26 05:37:51;;;;;;;;;;;;;;;25.84;28.10;100918.75;5097828;28;791;-38
2021/04/26 05:40:16;;;;;;;;;;;;;;;25.50;28.77;100913.34;5097647;28;942;-47
2021/04/26 05:42:41;;;;;;;;;;;;;;;26.28;27.62;100918.31;5097527;28;774;-43
2021/04/26 05:45:07;;;;;;;;;;;;;;;26.57;27.12;100923.28;5097460;28;1099;-39
2021/04/26 05:47:32;;;;;;;;;;;;;;;26.36;27.22;100925.56;5096198;28;1913;-40
2021/04/26 05:49:58;;;;;;;;;;;;;;;25.97;28.05;100923.59;5081211;28;1481;-41
2021/04/26 05:52:23;;;;;;;;;;;;;;;25.94;28.27;100924.78;5077104;28;815;-41
2021/04/26 05:54:48;;;;;;;;;;;;;;;25.71;28.43;100930.84;5077085;28;839;-37
2021/04/26 05:57:14;;;;;;;;;;;;;;;26.23;27.95;100923.38;5076730;28;822;-41
2021/04/26 05:59:39;;;;;;;;;;;;;;;26.51;27.83;100916.72;5077028;28;733;-40
2021/04/26 06:02:04;;;;;;;;;;;;;;;26.78;27.04;100925.38;5084001;28;1017;-41
2021/04/26 06:04:29;;;;;;;;;;;;;;;26.18;27.82;100933.81;5096815;28;818;-41
2021/04/26 06:06:55;;;;;;;;;;;;;;;25.87;28.32;100931.88;5097217;28;795;-40
2021/04/26 06:09:21;;;;;;;;;;;;;;;25.76;28.83;100923.13;5109620;28;1914;-49
2021/04/26 06:11:46;;;;;;;;;;;;;;;26.25;28.15;100924.03;5112907;28;1118;-39
2021/04/26 06:14:11;;;;;;;;;;;;;;;26.54;27.71;100913.69;5097308;28;763;-41
2021/04/26 06:16:37;;;;;;;;;;;;;;;26.34;27.84;100907.88;5096613;28;926;-39
2021/04/26 06:19:03;;;;;;;;;;;;;;;26.00;28.06;100913.31;5097478;28;813;-38
2021/04/26 06:21:28;;;;;;;;;;;;;;;25.84;28.60;100911.47;5096679;28;794;-39
2021/04/26 06:23:54;;;;;;;;;;;;;;;26.04;28.47;100911.13;5097144;28;779;-42
2021/04/26 06:26:19;;;;;;;;;;;;;;;26.55;27.66;100903.72;5096741;28;886;-38
2021/04/26 06:28:44;;;;;;;;;;;;;;;26.51;27.36;100903.22;5097017;28;1909;-38
2021/04/26 06:31:13;;;;;;;;;;;;;;;26.16;27.87;100934.00;5097201;28;783;-38
2021/04/26 06:33:38;;;;;;;;;;;;;;;26.08;27.98;100904.38;5097036;28;838;-37
2021/04/26 06:36:04;;;;;;;;;;;;;;;25.95;28.35;100915.69;5097036;28;867;-39
2021/04/26 06:38:29;;;;;;;;;;;;;;;26.00;28.61;100920.56;5095693;28;855;-36
2021/04/26 06:40:55;;;;;;;;;;;;;;;26.05;28.44;100923.59;5096410;28;1021;-39
2021/04/26 06:43:20;;;;;;;;;;;;;;;26.12;28.16;100924.59;5096418;28;855;-39
2021/04/26 06:45:45;;;;;;;;;;;;;;;26.19;28.14;100923.91;5095644;28;1616;-39
2021/04/26 06:48:14;;;;;;;;;;;;;;;26.13;28.60;100928.97;5095516;28;1972;-39
2021/04/26 06:50:39;;;;;;;;;;;;;;;26.14;28.31;100916.34;5096382;28;827;-38
2021/04/26 06:53:05;;;;;;;;;;;;;;;26.06;28.59;100924.44;5096312;28;1418;-38
2021/04/26 06:55:31;;;;;;;;;;;;;;;26.14;28.43;100921.72;5096322;28;1553;-39
2021/04/26 06:57:56;;;;;;;;;;;;;;;26.28;28.21;100923.69;5096715;28;764;-39
2021/04/26 07:00:22;;;;;;;;;;;;;;;26.16;28.46;100923.22;5096624;28;870;-39
2021/04/26 07:02:47;;;;;;;;;;;;;;;25.99;28.65;100917.00;5096301;28;950;-40
2021/04/26 07:05:13;;;;;;;;;;;;;;;26.13;28.60;100914.63;5098149;28;740;-38
2021/04/26 07:07:38;;;;;;;;;;;;;;;26.27;28.25;100918.47;5100375;28;1969;-38
2021/04/26 07:10:04;;;;;;;;;;;;;;;26.30;28.24;100918.13;5100625;28;802;-39
2021/04/26 07:12:29;;;;;;;;;;;;;;;26.45;28.28;100915.59;5111095;28;1146;-38
2021/04/26 07:14:54;;;;;;;;;;;;;;;26.32;28.42;100924.19;5120610;28;740;-38
2021/04/26 07:17:22;;;;;;;;;;;;;;;26.34;28.23;100915.97;5109845;28;953;-38
2021/04/26 07:19:48;;;;;;;;;;;;;;;26.40;28.33;100924.19;5099757;28;792;-38
2021/04/26 07:22:13;;;;;;;;;;;;;;;26.37;28.40;100926.41;5100097;28;782;-38
2021/04/26 07:24:38;;;;;;;;;;;;;;;26.41;28.19;100923.19;5099915;28;882;-38
2021/04/26 07:27:03;;;;;;;;;;;;;;;26.45;28.26;100923.69;5100719;28;778;-38
2021/04/26 07:29:29;;;;;;;;;;;;;;;26.56;28.05;100927.84;5099877;28;1902;-39
2021/04/26 07:31:54;;;;;;;;;;;;;;;26.55;27.91;100926.16;5099787;28;954;-39
2021/04/26 07:34:19;;;;;;;;;;;;;;;26.65;28.04;100928.66;5100090;28;854;-38
2021/04/26 07:36:45;;;;;;;;;;;;;;;26.80;27.83;100923.34;5099478;28;850;-39
2021/04/26 07:39:10;;;;;;;;;;;;;;;26.77;27.94;100921.84;5099762;28;881;-38
2021/04/26 07:41:35;;;;;;;;;;;;;;;26.69;28.10;100921.06;5098480;28;864;-38
2021/04/26 07:44:01;;;;;;;;;;;;;;;26.72;27.98;100923.41;5099521;28;1078;-38
2021/04/26 07:46:27;;;;;;;;;;;;;;;26.83;27.97;100912.19;5098574;28;1633;-38
2021/04/26 07:48:52;;;;;;;;;;;;;;;26.78;27.92;100918.13;5099388;28;1980;-38
2021/04/26 07:51:17;;;;;;;;;;;;;;;26.94;27.57;100919.06;5099606;28;792;-38
2021/04/26 07:53:42;;;;;;;;;;;;;;;26.76;27.94;100919.31;5099786;28;819;-38
2021/04/26 07:56:08;;;;;;;;;;;;;;;26.82;27.97;100924.03;5099366;28;823;-39
2021/04/26 07:58:33;;;;;;;;;;;;;;;26.79;28.00;100918.97;5099493;28;783;-38
2021/04/26 08:00:58;;;;;;;;;;;;;;;26.70;28.02;100925.41;5099605;28;743;-38
2021/04/26 08:03:24;;;;;;;;;;;;;;;26.79;27.82;100916.28;5098677;28;962;-39
2021/04/26 08:05:49;;;;;;;;;;;;;;;26.78;27.88;100925.38;5099235;28;735;-38
2021/04/26 08:08:15;;;;;;;;;;;;;;;26.78;28.03;100928.94;5099131;28;1905;-39
2021/04/26 08:10:40;;;;;;;;;;;;;;;26.86;27.86;100928.03;5099707;28;811;-39
2021/04/26 08:13:05;;;;;;;;;;;;;;;26.85;27.86;100934.47;5114847;28;1094;-38
2021/04/26 08:15:31;;;;;;;;;;;;;;;26.84;28.10;100926.53;5119637;28;822;-38
2021/04/26 08:17:56;;;;;;;;;;;;;;;26.92;27.82;100926.50;5103838;28;945;-39
2021/04/26 08:20:21;;;;;;;;;;;;;;;26.92;27.78;100915.69;5097922;28;1622;-39
2021/04/26 08:22:46;;;;;;;;;;;;;;;26.93;27.65;100919.22;5099598;28;807;-39
2021/04/26 08:25:12;;;;;;;;;;;;;;;26.94;27.82;100913.66;5099074;28;790;-39
2021/04/26 08:27:37;;;;;;;;;;;;;;;26.87;27.89;100916.25;5098046;28;1902;-38
2021/04/26 08:30:03;;;;;;;;;;;;;;;26.84;27.90;100919.25;5099122;28;755;-39
2021/04/26 08:32:28;;;;;;;;;;;;;;;26.83;28.08;100916.75;5098271;28;954;-40
2021/04/26 08:34:53;;;;;;;;;;;;;;;26.69;28.16;100910.25;5098945;28;821;-39
2021/04/26 08:37:19;;;;;;;;;;;;;;;26.74;28.18;100906.00;5099059;28;811;-39
2021/04/26 08:39:44;;;;;;;;;;;;;;;26.83;28.00;100905.94;5098672;28;755;-39
2021/04/26 08:42:09;;;;;;;;;;;;;;;26.74;28.46;100911.41;5098854;28;735;-39
2021/04/26 08:44:35;;;;;;;;;;;;;;;26.62;28.25;100910.13;5097327;28;1256;-39
2021/04/26 08:47:00;;;;;;;;;;;;;;;26.59;27.08;100911.28;5097400;28;1777;-39
2021/04/26 08:49:25;;;;;;;;;;;;;;;26.75;27.59;100913.09;5097137;28;1975;-38
2021/04/26 08:51:51;;;;;;;;;;;;;;;26.93;27.72;100909.28;5098718;28;723;-39
2021/04/26 08:54:16;;;;;;;;;;;;;;;27.01;27.36;100905.66;5098399;28;755;-38
2021/04/26 08:56:42;;;;;;;;;;;;;;;26.85;27.68;100898.53;5098481;28;718;-39
2021/04/26 08:59:07;;;;;;;;;;;;;;;26.77;27.70;100902.13;5098419;28;863;-39
2021/04/26 09:01:32;;;;;;;;;;;;;;;26.86;27.60;100895.66;5097761;28;958;-37
2021/04/26 09:04:04;;;;;;;;;;;;;;;26.93;27.47;100892.22;5098517;28;756;-39
2021/04/26 09:06:48;;;;;;;;;;;;;;;26.96;27.59;100886.50;5098359;28;780;-39
2021/04/26 09:09:13;;;;;;;;;;;;;;;26.92;27.70;100875.22;5098061;28;1947;-39
2021/04/26 09:11:50;;;;;;;;;;;;;;;27.01;27.65;100873.28;5101671;28;1146;-38
2021/04/26 09:14:27;;;;;;;;;;;;;;;26.96;27.35;100873.81;5118280;28;822;-37
2021/04/26 09:16:52;;;;;;;;;;;;;;;26.89;27.39;100873.69;5096443;28;1386;-38
2021/04/26 09:19:17;;;;;;;;;;;;;;;26.96;27.77;100879.22;5077726;28;814;-36
2021/04/26 09:21:46;;;;;;;;;;;;;;;26.80;27.79;100882.03;5075913;28;1463;-40
2021/04/26 09:24:17;;;;;;;;;;;;;;;26.96;27.55;100876.53;5077701;28;846;-39
2021/04/26 09:26:43;;;;;;;;;;;;;;;26.83;28.04;100868.16;5077573;28;763;-40
2021/04/26 09:29:15;;;;;;;;;;;;;;;26.88;27.89;100865.78;5076827;28;1988;-41
2021/04/26 09:31:41;;;;;;;;;;;;;;;26.92;27.88;100852.75;5080935;28;951;-39
2021/04/26 09:34:09;;;;;;;;;;;;;;;26.87;27.62;100850.59;5097760;28;764;-40
2021/04/26 09:36:34;;;;;;;;;;;;;;;26.86;27.55;100847.06;5095894;28;1172;-40
2021/04/26 09:39:03;;;;;;;;;;;;;;;26.86;27.66;100844.34;5097679;28;743;-42
2021/04/26 09:41:29;;;;;;;;;;;;;;;26.84;27.52;100840.19;5097650;28;739;-39
2021/04/26 09:44:01;;;;;;;;;;;;;;;26.83;27.19;100836.63;5097488;28;1097;-43
2021/04/26 09:46:44;;;;;;;;;;;;;;;26.63;26.84;100828.16;5096096;28;1632;-38
2021/04/26 09:49:13;;;;;;;;;;;;;;;26.59;27.05;100829.53;5097272;28;1983;-37
2021/04/26 09:51:39;;;;;;;;;;;;;;;23.92;23.89;100822.19;5097144;28;755;-39
2021/04/26 09:54:05;;;;;;;;;;;;;;;24.01;23.37;100833.84;5097703;28;772;-43
2021/04/26 09:56:31;;;;;;;;;;;;;;;24.48;22.91;100833.56;5097173;28;807;-42
2021/04/26 09:58:57;;;;;;;;;;;;;;;23.69;24.11;100824.59;5097351;28;755;-41
2021/04/26 10:01:22;;;;;;;;;;;;;;;24.00;23.23;100825.94;5097452;28;958;-41
2021/04/26 10:03:48;;;;;;;;;;;;;;;24.01;22.18;100822.22;5095750;28;1408;-42
2021/04/26 10:06:14;;;;;;;;;;;;;;;24.64;20.84;100820.16;5097186;28;767;-43
2021/04/26 10:08:39;;;;;;;;;;;;;;;23.70;26.72;100816.38;5096809;28;1898;-41
2021/04/26 10:11:04;;;;;;;;;;;;;;;24.69;24.97;100823.19;5097059;28;748;-40
2021/04/26 10:13:32;;;;;;;;;;;;;;;25.30;25.59;100826.66;5114550;28;1166;-39
2021/04/26 10:15:58;;;;;;;;;;;;;;;25.85;24.92;100826.09;5115807;28;932;-39
2021/04/26 10:18:27;;;;;;;;;;;;;;;25.99;25.01;100828.06;5097504;28;937;-37
2021/04/26 10:20:52;;;;;;;;;;;;;;;26.15;24.70;100829.03;5096922;28;755;-38
2021/04/26 10:23:33;;;;;;;;;;;;;;;26.04;25.17;100835.66;5096781;28;867;-38
2021/04/26 10:25:58;;;;;;;;;;;;;;;26.11;25.25;100831.22;5096650;28;784;-42
2021/04/26 10:28:27;;;;;;;;;;;;;;;26.15;25.17;100831.72;5096589;28;1901;-39
2021/04/26 10:31:19;;;;;;;;;;;;;;;26.18;25.46;100823.28;5096722;28;759;-37
2021/04/26 10:33:58;;;;;;;;;;;;;;;26.20;25.64;100823.09;5074583;28;1534;-40
2021/04/26 10:36:42;;;;;;;;;;;;;;;26.31;25.75;100822.72;5089513;28;879;-40
2021/04/26 10:39:08;;;;;;;;;;;;;;;26.17;25.96;100817.03;5096876;28;799;-41
2021/04/26 10:41:49;;;;;;;;;;;;;;;26.15;26.35;100815.56;5100812;28;775;-39
2021/04/26 10:44:15;;;;;;;;;;;;;;;26.23;26.21;100806.56;5100516;28;1044;-41
2021/04/26 10:46:40;;;;;;;;;;;;;;;26.31;26.22;100806.53;5094106;28;1680;-41
2021/04/26 10:49:08;;;;;;;;;;;;;;;26.51;26.10;100809.66;5100689;28;1914;-40
2021/04/26 10:51:34;;;;;;;;;;;;;;;26.50;26.35;100816.09;5100819;28;832;-38
2021/04/26 10:54:00;;;;;;;;;;;;;;;26.64;25.96;100811.78;5100687;28;755;-44
2021/04/26 10:56:26;;;;;;;;;;;;;;;26.77;26.27;100810.38;5100666;28;851;-42
2021/04/26 10:58:52;;;;;;;;;;;;;;;26.75;26.24;100809.69;5101075;28;779;-43
2021/04/26 11:01:19;;;;;;;;;;;;;;;26.94;25.88;100811.09;5099653;28;966;-38
2021/04/26 11:03:45;;;;;;;;;;;;;;;26.92;26.01;100813.13;5095124;28;1162;-41
2021/04/26 11:06:12;;;;;;;;;;;;;;;26.92;26.17;100804.19;5080415;28;799;-37
2021/04/26 11:13:43;;;;;;;;;;;;;;;27.12;26.01;100799.16;5080206;28;640;-38
2021/04/26 11:16:14;;;;;;;;;;;;;;;27.18;26.21;100793.03;5079928;28;817;-37
2021/04/26 11:18:43;;;;;;;;;;;;;;;27.14;26.16;100797.13;5099972;28;883;-41
2021/04/26 11:21:09;;;;;;;;;;;;;;;27.07;26.51;100796.16;5100281;28;767;-41
2021/04/26 11:23:47;;;;;;;;;;;;;;;26.90;26.53;100797.13;5098614;28;815;-38
2021/04/26 11:26:13;;;;;;;;;;;;;;;26.98;26.69;100795.34;5099566;28;985;-41
2021/04/26 11:28:57;;;;;;;;;;;;;;;27.14;26.75;100789.03;5099619;28;1918;-39
2021/04/26 11:31:45;;;;;;;;;;;;;;;26.92;27.20;100796.09;5099695;28;970;-41
2021/04/26 11:34:11;;;;;;;;;;;;;;;26.88;27.58;100787.50;5099966;28;1467;-38
2021/04/26 11:36:38;;;;;;;;;;;;;;;26.90;27.59;100789.00;5098401;28;834;-43
2021/04/26 11:39:04;;;;;;;;;;;;;;;27.16;27.37;100786.13;5099991;28;786;-37
2021/04/26 11:41:43;;;;;;;;;;;;;;;27.09;27.32;100783.34;5098211;28;988;-39
2021/04/26 11:44:08;;;;;;;;;;;;;;;26.64;27.52;100792.06;5099584;28;1134;-39
2021/04/26 11:46:34;;;;;;;;;;;;;;;26.84;27.61;100778.09;5098963;28;1562;-38
2021/04/26 11:49:12;;;;;;;;;;;;;;;26.89;27.71;100767.59;5099687;28;1971;-38
2021/04/26 11:51:38;;;;;;;;;;;;;;;26.81;27.56;100770.38;5099082;28;885;-43
2021/04/26 11:54:13;;;;;;;;;;;;;;;26.93;27.48;100777.00;5099587;28;988;-41
2021/04/26 11:56:38;;;;;;;;;;;;;;;26.89;27.59;100770.31;5099506;28;796;-37
2021/04/26 11:59:04;;;;;;;;;;;;;;;26.88;27.61;100760.50;5099633;28;799;-41
2021/04/26 12:01:30;;;;;;;;;;;;;;;26.87;27.67;100765.09;5099372;28;958;-39
2021/04/26 12:03:55;;;;;;;;;;;;;;;26.96;27.67;100762.31;5099657;28;823;-42
2021/04/26 12:06:21;;;;;;;;;;;;;;;26.96;27.43;100754.22;5099546;28;745;-40
2021/04/26 12:08:46;;;;;;;;;;;;;;;27.02;27.58;100745.41;5099031;28;1957;-41
2021/04/26 12:11:18;;;;;;;;;;;;;;;27.05;27.40;100753.16;5099230;28;763;-40
2021/04/26 12:13:44;;;;;;;;;;;;;;;27.08;27.47;100751.94;5078892;28;725;-44
2021/04/26 12:16:09;;;;;;;;;;;;;;;27.12;27.24;100756.81;5078575;28;514;-42
2021/04/26 12:18:35;;;;;;;;;;;;;;;27.16;27.28;100753.75;5098895;28;934;-43
2021/04/26 12:21:00;;;;;;;;;;;;;;;27.21;27.27;100748.63;5098031;28;792;-40
2021/04/26 12:23:25;;;;;;;;;;;;;;;27.35;26.99;100736.16;5098723;28;1001;-40
2021/04/26 12:25:51;;;;;;;;;;;;;;;27.32;27.16;100748.19;5098785;28;815;-46
2021/04/26 12:28:16;;;;;;;;;;;;;;;27.35;27.11;100731.59;5098993;28;1901;-41
2021/04/26 12:30:45;;;;;;;;;;;;;;;27.42;27.05;100737.09;5099178;28;775;-41
2021/04/26 12:33:32;;;;;;;;;;;;;;;27.37;27.23;100729.56;5098442;28;938;-38
2021/04/26 12:35:59;;;;;;;;;;;;;;;27.31;27.25;100740.25;5098907;28;771;-38
2021/04/26 12:38:25;;;;;;;;;;;;;;;27.24;27.78;100732.06;5098829;28;811;-39
2021/04/26 12:40:50;;;;;;;;;;;;;;;27.26;27.62;100735.38;5085009;28;1201;-41
2021/04/26 12:43:16;;;;;;;;;;;;;;;27.28;27.65;100719.84;5078522;28;763;-39
2021/04/26 12:45:42;;;;;;;;;;;;;;;27.28;27.69;100713.63;5078376;28;1571;-42
2021/04/26 12:48:08;;;;;;;;;;;;;;;27.26;27.54;100711.94;5097615;28;1910;-46
2021/04/26 12:50:53;;;;;;;;;;;;;;;27.34;27.69;100715.56;5098687;28;810;-38
2021/04/26 12:53:28;;;;;;;;;;;;;;;27.29;27.84;100704.50;5098195;28;2294;-45
2021/04/26 12:56:03;;;;;;;;;;;;;;;27.36;27.83;100705.44;5098420;28;810;-39